Terminal Aerodrome Forecast
Issued by NWS

Home | Current Version | Previous Version | Text Only | Print | Product List | Glossary On
Versions: 1 2 3 4 5 6 7 8 9 10 11 12 13 14 15 16 17 18 19 20 21 22 23 24 25 26
000
FTUS45 KSLC 282340
TAF36U
TAF
K36U 282340Z 2900/2924 22011G18KT P6SM BKN200
     FM290100 VRB04KT P6SM BKN200
     FM291600 23013G23KT P6SM SCT100 BKN200=

USA.gov is the U.S. government's official web portal to all federal, state and local government web resources and services.